Flight Track Log - Related Links

Times and Time Zones

All times are in EDT time to prevent confusion due to time zone crossing. See the RLI717 flight status page for this flight to view local times or setup timezone preferences in your user account.

Time Position Orientation Groundspeed Altitude Reporting Facility
EDT Latitude Longitude Course Direction KTS MPH feet Rate Location/Type
Fri 12:54:07 PM 41.1500 -73.6333 56° Northeast 244 281 4,300  Level New York TRACON
Fri 12:55:07 PM 41.2000 -73.5667 45° Northeast 269 310 6,900 2,353 Climbing New York TRACON
Fri 12:57:31 PM 41.3253 -73.3853 47° Northeast 282 325 12,300 2,118 Climbing Boston Center
Fri 12:58:00 PM 41.2533 -73.4371 47° Northeast  Level Estimated
Fri 12:58:31 PM 41.3822 -73.3061 46° Northeast 287 330 14,100  Level Boston Center
Fri 12:59:31 PM 41.4433 -73.2156 48° Northeast 299 344 16,000 1,650 Climbing Boston Center
Fri 01:00:31 PM 41.5022 -73.1303 47° Northeast 304 350 17,400 750 Climbing Boston Center
Fri 01:01:31 PM 41.5672 -73.0311 49° Northeast 341 392 17,500 50 Climbing Boston Center
Fri 01:02:31 PM 41.6303 -72.9372 48° Northeast 364 419 17,500  Level Boston Center
Fri 01:03:31 PM 41.6994 -72.8294 49° Northeast 354 407 17,500  Level Boston Center
Fri 01:04:31 PM 41.7622 -72.7378 47° Northeast 354 407 17,500  Level Boston Center
Fri 01:05:31 PM 41.8333 -72.6267 49° Northeast 359 413 17,500  Level Boston Center
Fri 01:06:31 PM 41.8939 -72.5350 48° Northeast 359 413 17,500  Level Boston Center
Fri 01:07:31 PM 41.9689 -72.4178 49° Northeast 359 413 17,500  Level Boston Center
Fri 01:08:31 PM 42.0272 -72.3283 49° Northeast 359 413 17,500  Level Boston Center
Fri 01:09:31 PM 42.1022 -72.2133 49° Northeast 359 413 17,500  Level Boston Center
Fri 01:10:31 PM 42.1622 -72.1208 49° Northeast 359 413 17,500  Level Boston Center
Fri 01:11:31 PM 42.2350 -72.0083 49° Northeast 359 413 17,500  Level Boston Center
Fri 01:12:31 PM 42.3033 -71.9039 48° Northeast 359 413 17,500  Level Boston Center
Fri 01:13:31 PM 42.3694 -71.7994 49° Northeast 366 421 17,500  Level Boston Center
Fri 01:14:31 PM 42.4292 -71.7058 49° Northeast 360 414 17,500  Level Boston Center
Fri 01:15:31 PM 42.5014 -71.5953 48° Northeast 360 414 17,500  Level Boston Center
Fri 01:16:31 PM 42.5611 -71.5014 49° Northeast 360 414 17,500  Level Boston Center
Fri 01:17:31 PM 42.6353 -71.3875 48° Northeast 360 414 17,500  Level Boston Center
Fri 01:18:31 PM 42.6947 -71.2931 49° Northeast 360 414 17,500  Level Boston Center
Fri 01:19:31 PM 42.7664 -71.1758 50° Northeast 360 414 17,500  Level Boston Center
Fri 01:20:31 PM 42.8319 -71.0728 49° Northeast 360 414 17,500  Level Boston Center
Fri 01:21:31 PM 42.8972 -70.9664 50° Northeast 360 414 17,500  Level Boston Center
Fri 01:22:31 PM 42.9625 -70.8625 49° Northeast 360 414 17,500  Level Boston Center
Fri 01:23:31 PM 43.0278 -70.7586 49° Northeast 360 414 17,500  Level Boston Center
Fri 01:24:31 PM 43.0931 -70.6544 49° Northeast 360 414 17,500  Level Boston Center
Fri 01:25:31 PM 43.1558 -70.5503 50° Northeast 360 414 17,500  Level Boston Center
Fri 01:26:31 PM 43.2186 -70.4486 50° Northeast 355 409 17,500  Level Boston Center
Fri 01:27:31 PM 43.2775 -70.3525 50° Northeast 361 415 17,500  Level Boston Center
Fri 01:28:31 PM 43.3483 -70.2386 49° Northeast 355 409 17,500  Level Boston Center
Fri 01:29:31 PM 43.4028 -70.1481 50° Northeast 355 409 17,500  Level Boston Center
Fri 01:30:31 PM 43.4714 -70.0339 50° Northeast 355 409 17,500  Level Boston Center
Fri 01:31:31 PM 43.5297 -69.9400 49° Northeast 355 409 17,500  Level Boston Center
Fri 01:32:31 PM 43.5958 -69.8256 51° Northeast 355 409 17,500  Level Boston Center
Fri 01:33:30 PM 43.6481 -69.7400 50° Northeast 355 409 17,500  Level Boston Center
Fri 01:34:31 PM 43.7242 -69.6131 50° Northeast 355 409 17,500  Level Boston Center
Fri 01:35:31 PM 43.7781 -69.5183 52° Northeast 355 409 17,500  Level Boston Center
Fri 01:36:31 PM 43.8481 -69.4028 50° Northeast 355 409 17,500  Level Boston Center
Fri 01:37:31 PM 43.9119 -69.2958 50° Northeast 360 414 17,500 -900 Level Boston Center
Fri 01:38:31 PM 43.9714 -69.1886 52° Northeast 360 414 15,700  Descending Boston Center
Fri 01:39:31 PM 44.0311 -69.0872 51° Northeast 354 407 17,500 -1,700 Climbing Boston Center
Fri 01:40:31 PM 44.0928 -68.9883 49° Northeast 343 395 12,300 -3,500 Descending Boston Center
Fri 01:41:31 PM 44.1503 -68.8894 51° Northeast 338 389 10,500 -1,650 Descending Boston Center
Fri 01:42:31 PM 44.2017 -68.7994 51° Northeast 317 365 9,000 -1,600 Descending Boston Center
Fri 01:43:31 PM 44.2531 -68.7122 51° Northeast 300 345 7,300 -1,650 Descending Boston Center
Fri 01:44:31 PM 44.3003 -68.6281 52° Northeast 282 325 5,700 -1,100 Descending Boston Center
Fri 01:45:31 PM 44.3458 -68.5525 50° Northeast 282 325 5,100 -600 Descending Boston Center

Login

Don't have an account? Register now (free) for customized features, flight alerts, and more!